Time;durP1;ratioP1;P1;durP2;ratioP2;P2;SDS_P1;SDS_P2;PMS_P1;PMS_P2;Temp;Humidity;BMP_temperature;BMP_pressure;BME280_temperature;BME280_humidity;BME280_pressure;Samples;Min_cycle;Max_cycle;Signal;HPM_P1;HPM_P2
2022/05/17 00:01:01;;;;;;;;;16.50;14.00;;;;;22.74;52.16;101544.00;5039220;28;45420;-71
2022/05/17 00:03:27;;;;;;;;;19.50;19.50;;;;;22.72;51.90;101554.69;5039476;28;45356;-72
2022/05/17 00:05:53;;;;;;;;;12.25;12.25;;;;;22.73;52.54;101550.25;5040713;28;45361;-70
2022/05/17 00:08:19;;;;;;;;;14.50;14.50;;;;;22.67;52.38;101546.22;5040655;28;45359;-71
2022/05/17 00:10:46;;;;;;;;;14.25;13.00;;;;;22.65;52.26;101553.41;5040629;28;45282;-70
2022/05/17 00:13:13;;;;;;;;;14.25;12.50;;;;;22.62;52.65;101552.75;5039786;28;45358;-71
2022/05/17 00:15:44;;;;;;;;;11.50;11.50;;;;;22.55;52.64;101539.06;5038537;28;47327;-71
2022/05/17 00:18:13;;;;;;;;;10.25;8.75;;;;;22.58;52.04;101557.38;5040430;28;45463;-71
2022/05/17 00:20:41;;;;;;;;;12.75;12.75;;;;;22.51;51.94;101542.00;5039324;28;45393;-69
2022/05/17 00:23:07;;;;;;;;;9.00;8.75;;;;;22.51;52.52;101549.94;5039651;28;45422;-69
2022/05/17 00:25:34;;;;;;;;;9.75;7.25;;;;;22.48;51.95;101543.06;5037038;28;47209;-69
2022/05/17 00:27:59;;;;;;;;;9.00;8.25;;;;;22.41;52.23;101539.94;5036773;28;46476;-69
2022/05/17 00:30:25;;;;;;;;;8.50;6.25;;;;;22.42;52.14;101549.56;5039418;28;45567;-69
2022/05/17 00:32:50;;;;;;;;;12.75;7.00;;;;;22.36;52.01;101535.88;5039627;28;45354;-68
2022/05/17 00:35:15;;;;;;;;;6.25;5.00;;;;;22.37;51.91;101543.72;5038377;28;45478;-67
2022/05/17 00:37:42;;;;;;;;;6.75;6.00;;;;;22.35;52.27;101550.06;5039082;28;45489;-66
2022/05/17 00:40:09;;;;;;;;;7.25;5.25;;;;;22.33;52.06;101536.94;5037691;28;45462;-66
2022/05/17 00:42:35;;;;;;;;;6.00;6.00;;;;;22.32;51.71;101543.19;5040331;28;45313;-68
2022/05/17 00:45:00;;;;;;;;;8.00;7.00;;;;;22.28;52.21;101536.38;5038625;28;46356;-68
2022/05/17 00:47:30;;;;;;;;;5.00;5.00;;;;;22.26;52.38;101532.13;5038390;28;45260;-68
2022/05/17 00:50:12;;;;;;;;;9.75;7.25;;;;;22.27;52.20;101540.00;5040136;28;45405;-67
2022/05/17 00:53:07;;;;;;;;;8.75;6.00;;;;;22.27;52.45;101536.50;5037768;28;45558;-68
2022/05/17 00:55:38;;;;;;;;;5.00;4.25;;;;;22.26;52.31;101533.00;5030007;28;47149;-68
2022/05/17 00:58:09;;;;;;;;;7.00;7.00;;;;;22.27;52.95;101528.53;5038311;28;45305;-68
2022/05/17 01:00:43;;;;;;;;;8.00;6.25;;;;;22.25;52.45;101531.28;5036796;28;45565;-69
2022/05/17 01:03:13;;;;;;;;;8.75;7.00;;;;;22.21;52.56;101526.28;5038440;28;46236;-67
2022/05/17 01:05:45;;;;;;;;;5.00;5.00;;;;;22.21;52.66;101521.81;5039839;28;45455;-67
2022/05/17 01:08:14;;;;;;;;;8.00;7.25;;;;;22.21;52.81;101521.81;5030466;28;45482;-68
2022/05/17 01:10:40;;;;;;;;;5.50;5.50;;;;;22.20;52.52;101524.56;5040558;28;45438;-68
2022/05/17 01:15:51;;;;;;;;;11.75;7.00;;;;;22.20;52.74;101521.91;5039654;28;45280;-67
2022/05/17 01:18:16;;;;;;;;;5.50;5.50;;;;;22.16;52.75;101518.63;5031685;28;45791;-66
2022/05/17 01:20:43;;;;;;;;;7.25;6.25;;;;;22.16;53.02;101523.91;5037214;28;45272;-67
2022/05/17 01:23:08;;;;;;;;;8.50;7.00;;;;;22.10;52.85;101519.88;5037924;28;45285;-67
2022/05/17 01:25:34;;;;;;;;;7.75;7.75;;;;;22.13;52.94;101521.47;5039449;28;45464;-67
2022/05/17 01:28:02;;;;;;;;;4.50;4.50;;;;;22.12;52.96;101517.13;5038083;28;45459;-67
2022/05/17 01:30:30;;;;;;;;;8.50;6.00;;;;;22.10;53.26;101517.22;5038540;28;45589;-68
2022/05/17 01:33:01;;;;;;;;;8.00;6.25;;;;;22.07;53.07;101514.78;5037998;28;45233;-69
2022/05/17 01:35:26;;;;;;;;;9.75;6.00;;;;;22.04;53.35;101516.75;5037061;28;47236;-67
2022/05/17 01:37:55;;;;;;;;;6.50;5.00;;;;;21.99;53.44;101518.81;5037417;28;45340;-67
2022/05/17 01:40:22;;;;;;;;;7.50;6.00;;;;;21.99;53.36;101521.44;5038343;28;45229;-68
2022/05/17 01:42:47;;;;;;;;;7.00;6.75;;;;;21.96;53.25;101514.56;5039163;28;45399;-68
2022/05/17 01:45:13;;;;;;;;;11.75;8.00;;;;;21.97;53.17;101518.06;5038135;28;45460;-67
2022/05/17 01:47:38;;;;;;;;;8.50;7.25;;;;;21.97;53.26;101518.91;5038109;28;45387;-67
2022/05/17 01:50:04;;;;;;;;;8.75;7.25;;;;;21.93;53.22;101512.09;5041652;28;45316;-68
2022/05/17 01:52:30;;;;;;;;;7.50;6.50;;;;;21.92;53.08;101521.00;5042997;28;45381;-67
2022/05/17 01:54:55;;;;;;;;;8.50;8.00;;;;;21.92;53.20;101517.50;5038275;28;45347;-68
2022/05/17 01:57:21;;;;;;;;;8.50;7.00;;;;;21.88;53.17;101519.50;5036135;28;45344;-70
2022/05/17 01:59:46;;;;;;;;;11.75;7.75;;;;;21.85;53.19;101515.25;5038308;28;45304;-69
2022/05/17 02:02:11;;;;;;;;;7.00;6.00;;;;;21.83;53.01;101525.06;5040888;28;45618;-69
2022/05/17 02:04:37;;;;;;;;;5.75;4.00;;;;;21.80;52.84;101519.09;5037994;28;45459;-70
2022/05/17 02:07:03;;;;;;;;;7.00;5.00;;;;;21.71;53.36;101524.97;5038121;28;45383;-70
2022/05/17 02:09:28;;;;;;;;;7.50;5.25;;;;;21.67;53.34;101547.28;5038520;28;45300;-70
2022/05/17 02:11:54;;;;;;;;;7.75;7.00;;;;;21.58;54.29;101558.41;5037867;28;45436;-70
2022/05/17 02:14:20;;;;;;;;;7.75;6.50;;;;;21.57;55.04;101560.19;5037406;28;46349;-70
2022/05/17 02:16:46;;;;;;;;;8.50;6.00;;;;;21.56;54.34;101550.56;5038887;28;45403;-70
2022/05/17 02:19:11;;;;;;;;;5.75;5.00;;;;;21.57;54.29;101562.84;5036883;28;45257;-68
2022/05/17 02:21:37;;;;;;;;;6.75;6.00;;;;;21.57;53.91;101557.53;5041174;28;45225;-68
2022/05/17 02:24:06;;;;;;;;;5.75;5.75;;;;;21.60;54.26;101538.00;5040481;28;45161;-69
2022/05/17 02:26:32;;;;;;;;;6.75;5.75;;;;;21.63;54.08;101551.06;5040201;28;45786;-69
2022/05/17 02:28:57;;;;;;;;;8.75;6.75;;;;;21.62;53.86;101554.63;5041286;28;45367;-69
2022/05/17 02:31:23;;;;;;;;;6.25;6.25;;;;;21.63;53.75;101564.28;5041373;28;45367;-71
2022/05/17 02:33:49;;;;;;;;;5.75;5.25;;;;;21.61;53.95;101561.69;5041018;28;46464;-71
2022/05/17 02:36:14;;;;;;;;;4.00;3.50;;;;;21.61;53.93;101559.06;5041330;28;45421;-71
2022/05/17 02:38:41;;;;;;;;;7.00;4.75;;;;;21.61;53.87;101569.63;5041149;28;45537;-71
2022/05/17 02:41:07;;;;;;;;;5.00;5.00;;;;;21.53;53.75;101562.19;5041161;28;45230;-71
2022/05/17 02:43:32;;;;;;;;;5.25;3.50;;;;;21.53;53.50;101551.59;5039872;28;45415;-71
2022/05/17 02:45:58;;;;;;;;;7.00;5.25;;;;;21.52;53.48;101560.47;5041472;28;45299;-69
2022/05/17 02:48:23;;;;;;;;;7.25;6.00;;;;;21.53;53.02;101556.88;5041344;28;45442;-69
2022/05/17 02:50:48;;;;;;;;;5.00;5.00;;;;;21.53;53.13;101553.38;5043601;28;45254;-71
2022/05/17 02:53:14;;;;;;;;;5.00;4.00;;;;;21.52;53.41;101559.63;5040820;28;45514;-69
2022/05/17 02:55:39;;;;;;;;;7.00;5.00;;;;;21.48;53.09;101553.69;5039869;28;45296;-67
2022/05/17 02:58:05;;;;;;;;;5.25;4.00;;;;;21.51;53.36;101557.94;5037322;28;45375;-68
2022/05/17 03:00:30;;;;;;;;;4.50;4.00;;;;;21.49;53.01;101550.09;5041111;28;45316;-68
2022/05/17 03:02:56;;;;;;;;;6.75;5.00;;;;;21.49;53.06;101552.72;5039793;28;45337;-68
2022/05/17 03:05:21;;;;;;;;;7.25;3.75;;;;;21.49;53.30;101554.53;5039568;28;45353;-68
2022/05/17 03:07:48;;;;;;;;;6.00;4.75;;;;;21.47;53.03;101556.41;5041622;28;45477;-68
2022/05/17 03:10:14;;;;;;;;;5.25;4.75;;;;;21.46;53.08;101550.28;5038865;28;45839;-70
2022/05/17 03:12:40;;;;;;;;;8.00;6.00;;;;;21.45;53.40;101548.56;5039346;28;46472;-68
2022/05/17 03:15:06;;;;;;;;;7.25;6.50;;;;;21.41;53.15;101544.38;5038053;28;45513;-68
2022/05/17 03:17:32;;;;;;;;;7.75;7.00;;;;;21.38;53.22;101547.22;5039098;28;45644;-69
2022/05/17 03:19:57;;;;;;;;;8.50;7.50;;;;;21.38;53.44;101547.22;5037947;28;45581;-67
2022/05/17 03:22:23;;;;;;;;;6.75;6.75;;;;;21.32;53.80;101539.66;5038901;28;46405;-67
2022/05/17 03:24:49;;;;;;;;;7.50;6.50;;;;;21.29;53.48;101539.84;5039306;28;45760;-67
2022/05/17 03:27:17;;;;;;;;;7.50;7.00;;;;;21.27;53.93;101541.75;5036467;28;45475;-67
2022/05/17 03:29:43;;;;;;;;;8.50;7.00;;;;;21.27;53.68;101540.88;5036952;28;45517;-70
2022/05/17 03:32:09;;;;;;;;;9.00;7.75;;;;;21.22;54.02;101544.63;5038680;28;46993;-69
2022/05/17 03:34:34;;;;;;;;;9.75;6.50;;;;;21.18;54.83;101535.16;5038866;28;45673;-72
2022/05/17 03:37:00;;;;;;;;;11.00;8.50;;;;;21.16;54.54;101536.19;5040596;28;45317;-71
2022/05/17 03:39:25;;;;;;;;;9.00;8.00;;;;;21.14;54.91;101536.28;5040219;28;45255;-73
2022/05/17 03:41:51;;;;;;;;;10.75;8.75;;;;;21.14;54.61;101530.16;5038737;28;47297;-72
2022/05/17 03:44:17;;;;;;;;;10.50;8.00;;;;;21.13;55.54;101526.66;5039747;28;45362;-72
2022/05/17 03:46:43;;;;;;;;;8.75;8.75;;;;;21.12;54.86;101534.69;5038170;28;45389;-72
2022/05/17 03:49:08;;;;;;;;;9.75;8.25;;;;;21.09;55.32;101543.63;5037674;28;45509;-72
2022/05/17 03:51:33;;;;;;;;;8.50;7.50;;;;;21.08;55.64;101541.09;5046390;28;45486;-71
2022/05/17 03:53:59;;;;;;;;;8.50;8.50;;;;;21.06;55.73;101537.69;5039535;28;45545;-72
2022/05/17 03:56:24;;;;;;;;;13.75;10.00;;;;;21.02;55.69;101534.34;5038433;28;45404;-72
2022/05/17 03:58:49;;;;;;;;;8.25;8.00;;;;;21.05;55.42;101543.91;5038499;28;45282;-72
2022/05/17 04:01:15;;;;;;;;;9.50;9.00;;;;;21.02;55.69;101538.78;5039938;28;46199;-71
2022/05/17 04:03:43;;;;;;;;;10.50;8.75;;;;;21.05;55.89;101533.34;5037471;28;45380;-73
2022/05/17 04:06:09;;;;;;;;;9.00;9.00;;;;;21.02;55.75;101538.78;5037834;28;45458;-72
2022/05/17 04:08:36;;;;;;;;;6.75;6.50;;;;;21.03;55.95;101546.66;5038401;28;45400;-73
2022/05/17 04:11:03;;;;;;;;;9.50;9.50;;;;;21.01;56.25;101539.72;5038103;28;46702;-73
2022/05/17 04:13:31;;;;;;;;;9.00;8.25;;;;;21.00;56.31;101533.59;5038274;28;45260;-72
2022/05/17 04:15:58;;;;;;;;;7.75;7.00;;;;;21.01;56.82;101537.09;5040287;28;45387;-72
2022/05/17 04:18:23;;;;;;;;;9.50;8.25;;;;;20.98;56.22;101538.13;5039119;28;45380;-72
2022/05/17 04:20:49;;;;;;;;;47.75;39.75;;;;;21.01;56.52;101542.38;5038406;28;46936;-72
2022/05/17 04:23:14;;;;;;;;;10.25;9.25;;;;;21.02;56.50;101549.34;5038031;28;45434;-72
2022/05/17 04:25:40;;;;;;;;;7.25;6.00;;;;;20.97;56.73;101539.06;5037066;28;45384;-70
2022/05/17 04:28:06;;;;;;;;;9.50;8.75;;;;;20.99;56.79;101545.09;5037909;28;46102;-70
2022/05/17 04:30:31;;;;;;;;;9.50;9.00;;;;;20.98;57.10;101543.41;5038064;28;47978;-73
2022/05/17 04:32:59;;;;;;;;;7.00;7.00;;;;;20.98;57.12;101548.69;5038898;28;45232;-74
2022/05/17 04:35:24;;;;;;;;;10.50;9.00;;;;;20.96;57.42;101548.78;5037209;28;45388;-74
2022/05/17 04:37:50;;;;;;;;;8.25;8.00;;;;;20.98;57.30;101558.41;5038951;28;45600;-72
2022/05/17 04:40:16;;;;;;;;;10.50;9.75;;;;;20.99;57.27;101560.09;5037789;28;46800;-71
2022/05/17 04:42:43;;;;;;;;;8.00;8.00;;;;;20.96;57.55;101556.72;5038357;28;45414;-73
2022/05/17 04:45:11;;;;;;;;;9.00;8.00;;;;;20.95;57.27;101564.72;5037282;28;45308;-73
2022/05/17 04:47:41;;;;;;;;;10.50;9.00;;;;;20.93;57.27;101567.47;5038242;28;45459;-70
2022/05/17 04:50:08;;;;;;;;;10.25;9.00;;;;;20.99;57.15;101565.41;5041404;28;47224;-67
2022/05/17 04:52:33;;;;;;;;;6.00;5.50;;;;;21.00;57.21;101564.44;5038186;28;45301;-70
2022/05/17 04:54:59;;;;;;;;;11.00;9.50;;;;;21.01;57.12;101566.16;5038684;28;45774;-70
2022/05/17 04:57:24;;;;;;;;;8.50;7.00;;;;;21.05;57.50;101579.13;5035785;28;47081;-70
2022/05/17 04:59:49;;;;;;;;;9.25;8.75;;;;;21.07;56.98;101571.97;5038209;28;45961;-70
2022/05/17 05:02:15;;;;;;;;;15.50;12.75;;;;;21.10;57.62;101569.13;5037339;28;45436;-70
2022/05/17 05:04:40;;;;;;;;;12.00;10.00;;;;;21.11;57.11;101565.53;5037578;28;45274;-73
2022/05/17 05:07:06;;;;;;;;;8.50;8.50;;;;;21.14;56.95;101564.50;5038379;28;45676;-74
2022/05/17 05:09:33;;;;;;;;;11.00;9.50;;;;;21.14;57.00;101567.16;5038072;28;45544;-73
2022/05/17 05:11:59;;;;;;;;;11.00;9.50;;;;;21.21;57.12;101579.06;5036131;28;45161;-74
2022/05/17 05:14:25;;;;;;;;;12.75;9.75;;;;;21.28;57.18;101584.91;5036133;28;46064;-72
2022/05/17 05:16:50;;;;;;;;;10.25;10.00;;;;;21.33;56.57;101574.88;5036353;28;45453;-73
2022/05/17 05:19:16;;;;;;;;;11.00;8.25;;;;;21.39;56.61;101585.94;5037154;28;46245;-73
2022/05/17 05:21:41;;;;;;;;;11.25;9.75;;;;;21.47;56.65;101589.00;5037657;28;45360;-73
2022/05/17 05:24:07;;;;;;;;;14.00;10.75;;;;;21.55;56.63;101593.81;5035860;28;45548;-72
2022/05/17 05:26:33;;;;;;;;;13.50;12.25;;;;;21.66;56.47;101601.13;5037948;28;45314;-72
2022/05/17 05:28:59;;;;;;;;;11.50;10.00;;;;;21.69;56.34;101603.59;5036716;28;45683;-72
2022/05/17 05:31:24;;;;;;;;;12.25;12.25;;;;;21.71;56.31;101604.34;5038254;28;45290;-75
2022/05/17 05:33:49;;;;;;;;;18.50;17.00;;;;;21.74;56.02;101602.34;5036741;28;45335;-73
2022/05/17 05:36:15;;;;;;;;;20.75;11.75;;;;;21.79;56.16;101610.00;5033636;28;45479;-68
2022/05/17 05:38:41;;;;;;;;;9.25;9.25;;;;;21.81;56.03;101606.31;5049132;28;46021;-69
2022/05/17 05:41:12;;;;;;;;;17.50;13.00;;;;;21.88;55.89;101605.97;5031661;28;45787;-69
2022/05/17 05:43:38;;;;;;;;;14.50;11.00;;;;;21.90;55.71;101607.56;5037720;28;45348;-72
2022/05/17 05:46:04;;;;;;;;;17.75;16.25;;;;;21.95;56.68;101609.94;5033747;28;46346;-67
2022/05/17 05:48:29;;;;;;;;;17.00;15.50;;;;;21.94;56.83;101616.19;5035857;28;45493;-52
2022/05/17 05:50:54;;;;;;;;;20.75;15.75;;;;;21.91;58.13;101619.00;5034186;28;46751;-53
2022/05/17 05:53:20;;;;;;;;;21.75;19.50;;;;;21.90;57.54;101620.81;5037150;28;46892;-53
2022/05/17 05:55:49;;;;;;;;;19.00;14.25;;;;;21.87;58.06;101621.00;5040229;28;45509;-52
2022/05/17 05:58:15;;;;;;;;;20.00;16.50;;;;;21.87;58.15;101621.00;5041195;28;46211;-52
2022/05/17 06:00:41;;;;;;;;;20.75;16.75;;;;;21.88;57.82;101614.75;5039969;28;45346;-60
2022/05/17 06:03:07;;;;;;;;;22.50;15.25;;;;;21.96;58.08;101628.38;5041229;28;45297;-60
2022/05/17 06:05:32;;;;;;;;;18.50;14.50;;;;;21.94;58.21;101618.81;5042316;28;45514;-60
2022/05/17 06:07:57;;;;;;;;;22.75;19.25;;;;;21.97;57.94;101622.13;5040936;28;45430;-60
2022/05/17 06:10:23;;;;;;;;;35.25;29.25;;;;;22.07;61.66;101620.66;5040795;28;45345;-61
2022/05/17 06:12:49;;;;;;;;;21.00;17.75;;;;;22.34;61.12;101623.38;5038715;28;45458;-71
2022/05/17 06:15:15;;;;;;;;;32.00;26.75;;;;;22.55;62.16;101610.56;5040656;28;45415;-65
2022/05/17 06:17:41;;;;;;;;;20.00;14.25;;;;;22.72;58.11;101617.44;5040235;28;45691;-70
2022/05/17 06:20:09;;;;;;;;;20.75;17.00;;;;;22.82;57.36;101623.03;5036858;28;45832;-56
2022/05/17 06:22:34;;;;;;;;;22.50;17.25;;;;;22.80;56.68;101622.25;5039727;28;45631;-56
2022/05/17 06:25:00;;;;;;;;;18.50;15.25;;;;;22.81;57.44;101616.84;5040142;28;45296;-56
2022/05/17 06:27:25;;;;;;;;;43.00;28.75;;;;;;;;5042488;28;46593;-56
2022/05/17 06:29:51;;;;;;;;;19.67;17.67;;;;;22.92;57.78;101624.16;5050968;28;45416;-56
2022/05/17 06:32:17;;;;;;;;;16.50;12.00;;;;;23.05;55.32;101619.75;5043892;28;45275;-57
2022/05/17 06:34:43;;;;;;;;;19.50;19.00;;;;;23.05;54.47;101630.34;5041481;28;47084;-57
2022/05/17 06:37:09;;;;;;;;;15.50;15.00;;;;;23.00;54.75;101621.84;5040951;28;46470;-58
2022/05/17 06:39:35;;;;;;;;;19.50;17.50;;;;;23.08;55.19;101624.00;5042133;28;45331;-58
2022/05/17 06:42:02;;;;;;;;;17.25;13.75;;;;;23.01;55.41;101613.78;5041813;28;45312;-58
2022/05/17 06:44:29;;;;;;;;;12.75;11.00;;;;;23.15;54.69;101619.97;5041465;28;45484;-58
2022/05/17 06:46:56;;;;;;;;;15.50;15.00;;;;;23.26;53.82;101615.69;5039919;28;46010;-58
2022/05/17 06:49:22;;;;;;;;;10.00;9.25;;;;;23.27;53.48;101613.88;5041520;28;45335;-58
2022/05/17 06:51:48;;;;;;;;;12.00;11.00;;;;;23.37;53.90;101620.25;5042488;28;45236;-55
2022/05/17 06:54:14;;;;;;;;;10.75;9.00;;;;;23.55;52.86;101615.50;5041478;28;45383;-55
2022/05/17 06:56:39;;;;;;;;;11.75;11.75;;;;;23.71;51.86;101618.84;5041408;28;45809;-56
2022/05/17 06:59:06;;;;;;;;;12.50;10.00;;;;;23.76;51.50;101614.06;5040844;28;45237;-56
2022/05/17 07:01:32;;;;;;;;;8.25;8.25;;;;;23.82;49.97;101621.59;5040764;28;45236;-55
2022/05/17 07:03:57;;;;;;;;;11.50;8.50;;;;;23.84;50.42;101618.88;5041338;28;45213;-57
2022/05/17 07:06:23;;;;;;;;;6.00;6.00;;;;;23.74;48.72;101621.28;5040880;28;45371;-56
2022/05/17 07:08:48;;;;;;;;;10.75;8.00;;;;;23.63;49.02;101626.50;5041566;28;45176;-56
2022/05/17 07:13:58;;;;;;;;;9.75;8.00;;;;;23.47;49.35;101631.09;5040700;28;45250;-55
2022/05/17 07:16:24;;;;;;;;;9.00;7.75;;;;;23.54;49.55;101622.63;5041007;28;45432;-56
2022/05/17 07:18:50;;;;;;;;;8.50;7.75;;;;;23.56;49.58;101622.50;5041013;28;45360;-57
2022/05/17 07:21:15;;;;;;;;;11.00;9.75;;;;;23.72;49.44;101622.34;5049780;28;45700;-55
2022/05/17 07:23:42;;;;;;;;;13.00;8.75;;;;;23.81;50.00;101619.03;5045665;28;45279;-56
2022/05/17 07:26:08;;;;;;;;;12.50;10.00;;;;;23.97;49.20;101620.53;5039700;28;48415;-56
2022/05/17 07:28:43;;;;;;;;;17.00;11.50;;;;;24.12;48.41;101615.97;5040915;28;45405;-56
2022/05/17 07:31:09;;;;;;;;;10.75;8.25;;;;;24.03;47.60;101621.94;5039863;28;45437;-73
2022/05/17 07:33:35;;;;;;;;;11.00;8.00;;;;;24.02;47.37;101611.41;5045085;28;45339;-77
2022/05/17 07:36:02;;;;;;;;;10.00;9.75;;;;;24.09;47.11;101623.31;5040865;28;45426;-71
2022/05/17 07:38:27;;;;;;;;;13.75;11.25;;;;;24.14;47.33;101619.38;5071568;28;45363;-71
2022/05/17 07:40:53;;;;;;;;;15.75;14.00;;;;;24.25;46.95;101626.59;5040416;28;45517;-71
2022/05/17 07:43:20;;;;;;;;;11.25;9.00;;;;;24.31;46.83;101622.66;5040498;28;45496;-71
2022/05/17 07:45:47;;;;;;;;;28.25;21.00;;;;;24.38;46.69;101615.94;5038773;28;45784;-71
2022/05/17 07:48:13;;;;;;;;;21.75;18.50;;;;;24.38;46.58;101619.47;5055721;28;45763;-70
2022/05/17 07:50:38;;;;;;;;;18.75;17.25;;;;;24.45;46.40;101625.19;5042223;28;45386;-72
2022/05/17 07:53:06;;;;;;;;;27.75;21.50;;;;;24.46;46.39;101621.59;5044625;28;45366;-73
2022/05/17 07:55:32;;;;;;;;;33.50;23.50;;;;;24.48;46.00;101617.84;5026860;28;46178;-73
2022/05/17 07:57:57;;;;;;;;;18.50;17.50;;;;;24.60;45.62;101620.56;5038331;28;45834;-72
2022/05/17 08:00:23;;;;;;;;;25.00;17.50;;;;;24.68;45.91;101620.88;5038539;28;45392;-72
2022/05/17 08:02:49;;;;;;;;;23.00;19.50;;;;;24.75;45.21;101620.31;5038924;28;45491;-72
2022/05/17 08:05:15;;;;;;;;;19.00;17.25;;;;;24.83;45.12;101622.41;5041165;28;45518;-72
2022/05/17 08:07:40;;;;;;;;;18.50;13.25;;;;;24.89;44.03;101624.63;5040563;28;45276;-72
2022/05/17 08:10:06;;;;;;;;;10.75;9.75;;;;;24.96;43.53;101619.69;5038248;28;45291;-73
2022/05/17 08:12:32;;;;;;;;;11.25;9.00;;;;;25.02;43.62;101620.09;5039358;28;45711;-80
2022/05/17 08:14:58;;;;;;;;;10.00;9.75;;;;;25.04;43.28;101604.06;5046382;28;45608;-78
2022/05/17 08:17:23;;;;;;;;;5.25;5.25;;;;;25.14;42.29;101615.69;5035716;28;46155;-77
2022/05/17 08:19:49;;;;;;;;;7.00;6.25;;;;;25.23;42.77;101615.03;5038014;28;45428;-78
2022/05/17 08:22:14;;;;;;;;;8.50;7.75;;;;;25.37;42.45;101620.13;5036736;28;45439;-82
2022/05/17 08:27:37;;;;;;;;;8.25;8.25;;;;;25.52;42.17;101623.44;5027120;28;45249;-82
2022/05/17 08:30:12;;;;;;;;;12.25;8.00;;;;;25.60;41.46;101625.50;5039629;28;45445;-82
2022/05/17 08:33:17;;;;;;;;;8.25;7.50;;;;;25.61;41.23;101622.72;5050439;28;45347;-82
2022/05/17 08:35:50;;;;;;;;;6.25;3.75;;;;;25.67;41.18;101624.97;5030854;28;47166;-83
2022/05/17 08:38:22;;;;;;;;;8.75;6.75;;;;;25.71;41.30;101621.09;5039441;28;45456;-82
2022/05/17 08:41:10;;;;;;;;;6.75;6.00;;;;;25.76;40.55;101624.25;5047615;28;45386;-78
2022/05/17 08:44:17;;;;;;;;;8.00;5.50;;;;;25.83;39.75;101624.66;5038078;28;45466;-77
2022/05/17 08:47:11;;;;;;;;;10.25;9.75;;;;;25.78;39.09;101616.13;4967037;28;45750;-77
2022/05/17 08:49:43;;;;;;;;;4.25;4.25;;;;;25.72;38.77;101613.97;4979848;28;45354;-76
2022/05/17 08:52:15;;;;;;;;;5.50;4.50;;;;;25.77;38.98;101611.78;5033301;28;45541;-75
2022/05/17 08:54:44;;;;;;;;;4.50;4.50;;;;;25.79;37.98;101607.19;5043320;28;45448;-75
2022/05/17 08:57:18;;;;;;;;;4.00;4.00;;;;;25.84;35.87;101605.03;5039546;28;46547;-78
2022/05/17 08:59:46;;;;;;;;;5.75;4.50;;;;;25.80;37.81;101603.56;5039737;28;45391;-76
2022/05/17 09:02:17;;;;;;;;;5.25;5.25;;;;;25.86;37.41;101611.09;5039720;28;45466;-76
2022/05/17 09:05:07;;;;;;;;;2.75;2.75;;;;;25.91;36.42;101608.06;5039905;28;45351;-75
2022/05/17 09:07:41;;;;;;;;;3.00;2.00;;;;;25.96;35.66;101611.19;5040260;28;46462;-76
2022/05/17 09:10:31;;;;;;;;;4.00;3.25;;;;;26.00;35.24;101607.31;5042121;28;45470;-71
2022/05/17 09:13:25;;;;;;;;;3.75;3.75;;;;;26.08;35.56;101612.91;5047019;28;45352;-70
2022/05/17 09:15:55;;;;;;;;;5.25;3.00;;;;;26.12;34.93;101609.03;5033626;28;46117;-71
2022/05/17 09:18:23;;;;;;;;;6.00;5.00;;;;;26.22;35.61;101615.31;5036259;28;45611;-71
2022/05/17 09:20:48;;;;;;;;;1.00;1.00;;;;;26.34;35.88;101609.03;5036331;28;45560;-71
2022/05/17 09:23:14;;;;;;;;;5.25;4.00;;;;;26.43;34.73;101598.59;5043618;28;45517;-73
2022/05/17 09:25:48;;;;;;;;;4.00;4.00;;;;;26.49;35.09;101598.13;5051154;28;45518;-73
2022/05/17 09:28:22;;;;;;;;;3.50;3.50;;;;;26.55;35.35;101597.63;5039162;28;46520;-70
2022/05/17 09:31:05;;;;;;;;;4.50;4.25;;;;;26.60;35.12;101596.25;5036359;28;45686;-71
2022/05/17 09:33:30;;;;;;;;;3.75;3.75;;;;;26.59;32.89;101588.38;5036108;28;45441;-70
2022/05/17 09:35:58;;;;;;;;;4.75;4.25;;;;;26.62;34.44;101586.31;5044698;28;45418;-70
2022/05/17 09:38:29;;;;;;;;;4.00;3.00;;;;;26.72;33.99;101585.56;5037987;28;45482;-70
2022/05/17 09:40:56;;;;;;;;;3.50;3.25;;;;;26.79;33.95;101584.94;5036832;28;45691;-73
2022/05/17 09:43:43;;;;;;;;;3.50;3.50;;;;;26.91;34.36;101591.94;5038864;28;45233;-71
2022/05/17 09:46:15;;;;;;;;;4.00;2.00;;;;;27.02;34.36;101592.88;5043857;28;45271;-69
2022/05/17 09:54:51;;;;;;;;;3.75;2.00;;;;;26.95;33.63;101579.19;5038848;28;45409;-63
2022/05/17 09:57:30;;;;;;;;;3.00;3.00;;;;;26.96;33.47;101595.06;5034680;28;45268;-64
2022/05/17 10:00:12;;;;;;;;;1.00;1.00;;;;;26.98;32.94;101584.25;5036554;28;46338;-62
2022/05/17 10:03:19;;;;;;;;;4.00;2.00;;;;;26.98;32.89;101576.25;5035357;28;45519;-62
2022/05/17 10:05:48;;;;;;;;;3.00;1.00;;;;;27.06;33.53;101581.00;5024071;28;45489;-65
2022/05/17 10:08:13;;;;;;;;;4.50;3.75;;;;;27.19;33.84;101576.31;5033033;28;45556;-63
2022/05/17 10:10:43;;;;;;;;;2.50;2.50;;;;;27.19;33.09;101576.31;5037061;28;46125;-64
2022/05/17 10:13:19;;;;;;;;;2.00;2.00;;;;;27.18;31.88;101574.63;5037671;28;45500;-65
2022/05/17 10:15:50;;;;;;;;;3.00;2.50;;;;;27.20;33.19;101573.50;5038502;28;45233;-63
2022/05/17 10:18:30;;;;;;;;;2.00;2.00;;;;;27.28;32.95;101572.88;5037309;28;45413;-63
2022/05/17 10:21:04;;;;;;;;;2.50;2.00;;;;;27.40;33.00;101568.31;5036485;28;48404;-63
2022/05/17 10:23:36;;;;;;;;;2.00;2.00;;;;;27.52;33.24;101561.94;5035333;28;45638;-62
2022/05/17 10:26:08;;;;;;;;;2.00;2.00;;;;;27.59;33.11;101563.91;5034501;28;45183;-61
2022/05/17 10:29:02;;;;;;;;;5.00;3.75;;;;;27.66;32.65;101556.28;5037196;28;45464;-61
2022/05/17 10:31:53;;;;;;;;;3.00;3.00;;;;;27.82;32.67;101563.78;5034404;28;48305;-62
2022/05/17 10:34:21;;;;;;;;;2.00;2.00;;;;;27.94;32.10;101554.72;5036496;28;45425;-63
2022/05/17 10:36:51;;;;;;;;;3.00;3.00;;;;;27.95;31.16;101551.06;5037538;28;45408;-62
2022/05/17 10:39:38;;;;;;;;;5.50;3.00;;;;;27.98;31.74;101541.91;5035997;28;45383;-64
2022/05/17 10:42:05;;;;;;;;;3.75;2.00;;;;;28.08;31.70;101542.81;5039616;28;46577;-65
2022/05/17 10:44:44;;;;;;;;;4.00;3.00;;;;;28.16;31.69;101534.94;5040104;28;45434;-64
2022/05/17 10:47:48;;;;;;;;;2.00;2.00;;;;;28.17;31.41;101537.47;5040239;28;45512;-65
2022/05/17 10:50:26;;;;;;;;;0.50;0.50;;;;;28.23;31.09;101540.56;5043758;28;45526;-64
2022/05/17 10:52:58;;;;;;;;;2.50;1.00;;;;;28.29;30.57;101532.06;5029138;28;47677;-64
2022/05/17 10:55:35;;;;;;;;;2.50;2.50;;;;;28.30;31.35;101520.38;5041135;28;45479;-65
2022/05/17 10:58:22;;;;;;;;;0.75;0.75;;;;;28.33;30.57;101520.09;5041207;28;45363;-65
2022/05/17 11:00:58;;;;;;;;;2.75;2.00;;;;;28.35;30.73;101524.31;5041031;28;45208;-65
2022/05/17 11:03:29;;;;;;;;;1.25;1.25;;;;;28.41;30.20;101512.22;5036950;28;46925;-66
2022/05/17 11:06:06;;;;;;;;;2.25;2.25;;;;;28.47;31.09;101523.22;5043271;28;45403;-64
2022/05/17 11:08:48;;;;;;;;;1.75;0.75;;;;;28.59;30.24;101518.56;5051943;28;45260;-64
2022/05/17 11:11:37;;;;;;;;;3.75;2.75;;;;;28.54;30.83;101502.09;5049422;28;45307;-66
2022/05/17 11:14:08;;;;;;;;;1.25;1.25;;;;;28.53;30.83;101499.56;5041904;28;45424;-65
2022/05/17 11:16:41;;;;;;;;;3.00;2.00;;;;;28.47;31.20;101512.53;5039428;28;45498;-65
2022/05/17 11:19:28;;;;;;;;;1.75;0.25;;;;;28.44;30.32;101509.28;5052141;28;45423;-65
2022/05/17 11:22:11;;;;;;;;;3.00;3.00;;;;;28.47;30.47;101504.50;5041359;28;45307;-63
2022/05/17 11:25:08;;;;;;;;;2.00;1.00;;;;;28.58;30.05;101491.97;5044216;28;47291;-63
2022/05/17 11:27:55;;;;;;;;;1.25;1.25;;;;;28.69;30.67;101489.16;5038625;28;45259;-63
2022/05/17 11:30:46;;;;;;;;;1.00;1.00;;;;;28.85;30.11;101489.44;5041245;28;45460;-63
2022/05/17 11:33:24;;;;;;;;;2.50;2.25;;;;;28.99;30.38;101491.69;5040368;28;45292;-63
2022/05/17 11:35:51;;;;;;;;;3.00;2.00;;;;;29.20;30.34;101491.50;5052604;28;45747;-62
2022/05/17 11:38:39;;;;;;;;;3.75;3.50;;;;;29.23;29.55;101496.56;5041524;28;45296;-62
2022/05/17 11:41:13;;;;;;;;;6.75;4.00;;;;;29.13;29.57;101490.41;5042043;28;45321;-61
2022/05/17 11:43:47;;;;;;;;;2.25;1.00;;;;;29.03;29.86;101487.75;5035169;28;45191;-63
2022/05/17 11:46:28;;;;;;;;;3.00;2.00;;;;;29.08;28.89;101477.47;5042984;28;48028;-63